createdAt,value
2023-02-09T00:02:17.670Z,73.66
2023-02-09T00:04:49.971Z,74.22
2023-02-09T00:07:21.835Z,73.92
2023-02-09T00:09:54.490Z,73.68
2023-02-09T00:12:44.773Z,74.32
2023-02-09T00:15:16.878Z,74.56
2023-02-09T00:17:48.843Z,73.95
2023-02-09T00:20:20.853Z,74.07
2023-02-09T00:22:52.852Z,74.44
2023-02-09T00:25:24.900Z,74.87
2023-02-09T00:27:56.744Z,74.58
2023-02-09T00:30:28.668Z,74.47
2023-02-09T00:33:01.261Z,75.25
2023-02-09T00:35:33.630Z,74.56
2023-02-09T00:38:05.532Z,74.73
2023-02-09T00:40:38.592Z,74.49
2023-02-09T00:43:11.960Z,74.81
2023-02-09T00:45:44.274Z,75.14
2023-02-09T00:48:16.219Z,75.32
2023-02-09T00:50:48.483Z,75.18
2023-02-09T00:53:21.490Z,75.19
2023-02-09T00:55:53.880Z,75.18
2023-02-09T00:58:25.870Z,75.84
2023-02-09T01:00:58.229Z,76.06
2023-02-09T01:03:30.319Z,76.03
2023-02-09T01:06:02.420Z,75.43
2023-02-09T01:08:34.551Z,75.19
2023-02-09T01:11:11.264Z,75.17
2023-02-09T01:13:44.317Z,75.09
2023-02-09T01:16:19.385Z,75.90
2023-02-09T01:18:51.986Z,75.82
2023-02-09T01:21:25.009Z,75.48
2023-02-09T01:23:57.374Z,75.66
2023-02-09T01:26:29.660Z,75.90
2023-02-09T01:29:01.692Z,75.89
2023-02-09T01:31:36.904Z,75.82
2023-02-09T01:34:09.365Z,75.82
2023-02-09T01:36:41.490Z,75.44
2023-02-09T01:39:15.156Z,75.56
2023-02-09T01:41:47.294Z,76.36
2023-02-09T01:44:23.214Z,76.50
2023-02-09T01:46:55.316Z,76.14
2023-02-09T01:49:28.915Z,76.59
2023-02-09T01:52:13.490Z,76.49
2023-02-09T01:54:48.434Z,76.64
2023-02-09T01:57:23.343Z,76.38
2023-02-09T02:00:01.614Z,76.55
2023-02-09T02:02:36.313Z,76.15
2023-02-09T02:05:10.506Z,76.14
2023-02-09T02:07:46.041Z,77.01
2023-02-09T02:10:18.629Z,77.31
2023-02-09T02:12:51.348Z,76.71
2023-02-09T02:15:29.904Z,77.36
2023-02-09T02:18:07.819Z,77.05
2023-02-09T02:20:51.866Z,77.27
2023-02-09T02:23:35.711Z,77.50
2023-02-09T02:26:25.671Z,77.37
2023-02-09T02:29:00.971Z,77.60
2023-02-09T02:31:59.867Z,77.02
2023-02-09T02:34:56.071Z,77.48
2023-02-09T02:37:51.502Z,76.69
2023-02-09T02:40:46.487Z,76.97
2023-02-09T02:43:27.593Z,77.04
2023-02-09T02:46:10.514Z,77.22
2023-02-09T02:48:48.763Z,76.84
2023-02-09T02:51:32.583Z,76.70
2023-02-09T02:54:08.217Z,77.03
2023-02-09T02:56:43.205Z,77.13
2023-02-09T02:59:18.292Z,77.16
2023-02-09T03:02:08.379Z,77.53
2023-02-09T03:04:41.917Z,77.30
2023-02-09T03:07:14.555Z,76.73
2023-02-09T03:09:55.272Z,76.92
2023-02-09T03:12:46.632Z,77.04
2023-02-09T03:15:47.095Z,76.74
2023-02-09T03:18:44.635Z,76.81
2023-02-09T03:21:20.111Z,76.85
2023-02-09T03:23:57.828Z,77.00
2023-02-09T03:26:44.398Z,77.09
2023-02-09T03:29:19.242Z,76.99
2023-02-09T03:31:52.863Z,77.03
2023-02-09T03:34:25.338Z,76.64
2023-02-09T03:36:59.131Z,77.21
2023-02-09T03:39:31.408Z,77.33
2023-02-09T03:42:03.572Z,77.15
2023-02-09T03:44:35.737Z,77.32
2023-02-09T03:47:10.596Z,77.39
2023-02-09T03:49:45.673Z,78.09
2023-02-09T03:52:18.432Z,78.18
2023-02-09T03:54:50.540Z,78.77
2023-02-09T03:57:22.943Z,79.07
2023-02-09T03:59:55.598Z,78.60
2023-02-09T04:02:27.605Z,78.55
2023-02-09T04:05:00.623Z,78.41
2023-02-09T04:07:33.120Z,77.82
2023-02-09T04:10:07.430Z,77.99
2023-02-09T04:12:40.289Z,78.42
2023-02-09T04:15:13.220Z,77.96
2023-02-09T04:17:45.731Z,78.10
2023-02-09T04:20:18.415Z,78.45
2023-02-09T04:22:50.646Z,78.32
2023-02-09T04:25:23.327Z,78.33
2023-02-09T04:27:55.449Z,78.05
2023-02-09T04:30:27.656Z,78.17
2023-02-09T04:32:59.742Z,77.99
2023-02-09T04:35:31.898Z,78.37
2023-02-09T04:38:04.607Z,77.95
2023-02-09T04:40:37.013Z,78.02
2023-02-09T04:43:09.688Z,77.83
2023-02-09T04:45:43.695Z,77.95
2023-02-09T04:48:19.368Z,77.62
2023-02-09T04:50:53.642Z,77.63
2023-02-09T04:53:26.418Z,78.06
2023-02-09T04:55:59.072Z,78.19
2023-02-09T04:58:48.841Z,78.14
2023-02-09T05:01:25.263Z,78.09
2023-02-09T05:03:57.702Z,78.02
2023-02-09T05:06:30.661Z,77.64
2023-02-09T05:09:03.386Z,77.57
2023-02-09T05:11:37.647Z,77.91
2023-02-09T05:14:10.130Z,78.08
2023-02-09T05:16:43.234Z,77.16
2023-02-09T05:19:16.447Z,77.63
2023-02-09T05:21:50.536Z,77.58
2023-02-09T05:24:23.891Z,76.92
2023-02-09T05:26:56.284Z,76.44
2023-02-09T05:29:28.687Z,76.45
2023-02-09T05:32:01.101Z,76.44
2023-02-09T05:34:33.560Z,76.36
2023-02-09T05:37:07.516Z,76.85
2023-02-09T05:39:42.469Z,77.04
2023-02-09T05:42:18.790Z,76.91
2023-02-09T05:44:52.743Z,76.89
2023-02-09T05:47:26.070Z,77.16
2023-02-09T05:49:58.362Z,76.71
2023-02-09T05:52:32.090Z,76.60
2023-02-09T05:55:04.667Z,76.95
2023-02-09T05:57:37.207Z,77.14
2023-02-09T06:00:09.924Z,76.72
2023-02-09T06:02:45.788Z,76.38
2023-02-09T06:05:20.003Z,76.28
2023-02-09T06:07:52.970Z,75.96
2023-02-09T06:10:25.580Z,75.67
2023-02-09T06:12:57.702Z,75.84
2023-02-09T06:15:30.418Z,76.00
2023-02-09T06:18:02.986Z,75.55
2023-02-09T06:20:35.264Z,75.67
2023-02-09T06:23:08.215Z,76.31
2023-02-09T06:25:42.021Z,75.49
2023-02-09T06:28:15.285Z,75.82
2023-02-09T06:30:55.262Z,75.55
2023-02-09T06:33:28.262Z,75.52
2023-02-09T06:36:01.238Z,75.70
2023-02-09T06:38:35.632Z,74.87
2023-02-09T06:41:08.406Z,74.89
2023-02-09T06:43:40.961Z,74.81
2023-02-09T06:46:15.335Z,74.58
2023-02-09T06:48:47.154Z,74.40
2023-02-09T06:51:19.498Z,74.03
2023-02-09T06:53:52.185Z,74.54
2023-02-09T06:56:24.703Z,74.01
2023-02-09T06:58:57.661Z,74.15
2023-02-09T07:01:29.904Z,73.86
2023-02-09T07:04:02.861Z,73.99
2023-02-09T07:06:35.403Z,72.83
2023-02-09T07:09:07.713Z,73.17
2023-02-09T07:11:40.860Z,72.35
2023-02-09T07:14:13.984Z,72.29
2023-02-09T07:16:46.675Z,72.89
2023-02-09T07:19:19.050Z,72.99
2023-02-09T07:21:51.414Z,73.35
2023-02-09T07:24:24.788Z,73.15
2023-02-09T07:26:57.211Z,73.21
2023-02-09T07:29:32.532Z,72.60
2023-02-09T07:32:06.216Z,71.71
2023-02-09T07:34:38.238Z,71.71
2023-02-09T07:37:11.090Z,71.52
2023-02-09T07:39:44.912Z,71.64
2023-02-09T07:42:18.177Z,71.65
2023-02-09T07:44:54.753Z,71.13
2023-02-09T07:47:27.704Z,70.82
2023-02-09T07:50:00.085Z,70.37
2023-02-09T07:52:32.893Z,70.01
2023-02-09T07:55:05.930Z,70.07
2023-02-09T07:57:38.278Z,70.36
2023-02-09T08:00:11.607Z,69.80
2023-02-09T08:02:46.882Z,69.72
2023-02-09T08:05:22.463Z,70.40
2023-02-09T08:07:56.424Z,70.20
2023-02-09T08:10:28.637Z,69.87
2023-02-09T08:13:02.704Z,69.88
2023-02-09T08:15:40.736Z,70.76
2023-02-09T08:18:16.525Z,70.78
2023-02-09T08:20:50.615Z,70.04
2023-02-09T08:23:26.055Z,70.40
2023-02-09T08:26:00.126Z,70.75
2023-02-09T08:28:43.672Z,70.20
2023-02-09T08:31:07.202Z,69.79
2023-02-09T08:33:39.660Z,70.15
2023-02-09T08:36:13.261Z,70.73
2023-02-09T08:38:46.759Z,71.13
2023-02-09T08:41:20.118Z,71.87
2023-02-09T08:43:52.781Z,72.57
2023-02-09T08:46:25.409Z,72.85
2023-02-09T08:48:57.618Z,71.97
2023-02-09T08:51:30.349Z,71.59
2023-02-09T08:54:02.790Z,72.19
2023-02-09T08:56:35.066Z,71.62
2023-02-09T08:59:07.643Z,72.07
2023-02-09T09:01:40.779Z,71.99
2023-02-09T09:04:12.989Z,72.00
2023-02-09T09:06:45.474Z,71.67
2023-02-09T09:09:19.138Z,72.43
2023-02-09T09:11:51.249Z,72.88
2023-02-09T09:14:25.846Z,72.60
2023-02-09T09:17:01.341Z,71.89
2023-02-09T09:19:33.577Z,71.84
2023-02-09T09:22:05.982Z,71.89
2023-02-09T09:24:40.195Z,72.79
2023-02-09T09:27:13.831Z,71.83
2023-02-09T09:29:46.405Z,71.65
2023-02-09T09:32:20.279Z,72.20
2023-02-09T09:34:56.463Z,72.38
2023-02-09T09:37:28.822Z,72.34
2023-02-09T09:40:01.283Z,72.10
2023-02-09T09:42:45.950Z,73.23
2023-02-09T09:45:22.077Z,72.85
2023-02-09T09:47:56.498Z,71.84
2023-02-09T09:50:40.385Z,72.59
2023-02-09T09:53:33.482Z,72.96
2023-02-09T09:56:09.070Z,71.73
2023-02-09T09:58:44.099Z,72.24
2023-02-09T10:01:18.949Z,71.90
2023-02-09T10:03:51.711Z,71.80
2023-02-09T10:06:25.300Z,71.62
2023-02-09T10:09:06.756Z,72.24
2023-02-09T10:11:48.356Z,71.65
2023-02-09T10:14:23.473Z,72.07
2023-02-09T10:16:55.410Z,72.18
2023-02-09T10:19:30.515Z,72.17
2023-02-09T10:22:03.229Z,71.32
2023-02-09T10:24:37.674Z,71.09
2023-02-09T10:27:24.975Z,71.16
2023-02-09T10:29:59.456Z,70.89
2023-02-09T10:32:42.437Z,71.20
2023-02-09T10:35:17.946Z,71.40
2023-02-09T10:37:53.365Z,71.94
2023-02-09T10:40:28.900Z,72.67
2023-02-09T10:43:19.406Z,72.82
2023-02-09T10:46:00.643Z,72.69
2023-02-09T10:48:35.798Z,71.91
2023-02-09T10:51:12.040Z,71.88
2023-02-09T10:53:58.454Z,72.05
2023-02-09T10:56:36.582Z,72.54
2023-02-09T10:59:19.951Z,72.30
2023-02-09T11:02:03.283Z,71.57
2023-02-09T11:04:42.794Z,71.82
2023-02-09T11:07:17.894Z,71.20
2023-02-09T11:09:52.122Z,71.94
2023-02-09T11:12:28.788Z,71.21
2023-02-09T11:15:01.797Z,70.49
2023-02-09T11:17:38.110Z,70.47
2023-02-09T11:20:25.226Z,71.15
2023-02-09T11:23:17.829Z,71.20
2023-02-09T11:25:53.494Z,71.94
2023-02-09T11:28:50.770Z,71.49
2023-02-09T11:31:27.179Z,71.19
2023-02-09T11:34:02.516Z,69.18
2023-02-09T11:36:54.512Z,68.32
2023-02-09T11:39:59.805Z,68.62
2023-02-09T11:42:45.575Z,68.16
2023-02-09T11:45:35.630Z,68.01
2023-02-09T11:48:20.347Z,68.01
2023-02-09T11:50:58.786Z,67.73
2023-02-09T11:53:46.019Z,67.07
2023-02-09T11:56:21.321Z,68.08
2023-02-09T11:59:14.005Z,68.38
2023-02-09T12:02:15.884Z,66.84
2023-02-09T12:04:57.117Z,66.21
2023-02-09T12:07:52.086Z,66.50
2023-02-09T12:10:37.513Z,65.22
2023-02-09T12:13:31.650Z,64.89
2023-02-09T12:16:25.088Z,65.22
2023-02-09T12:18:58.152Z,64.86
2023-02-09T12:21:37.856Z,63.70
2023-02-09T12:24:29.490Z,63.04
2023-02-09T12:27:02.315Z,63.90
2023-02-09T12:29:42.704Z,63.21
2023-02-09T12:32:17.422Z,63.32
2023-02-09T12:34:52.505Z,63.31
2023-02-09T12:37:29.928Z,62.83
2023-02-09T12:40:18.607Z,62.56
2023-02-09T12:42:53.776Z,62.95
2023-02-09T12:45:37.886Z,63.40
2023-02-09T12:48:18.302Z,62.94
2023-02-09T12:50:56.177Z,63.10
2023-02-09T12:53:37.899Z,62.93
2023-02-09T12:56:16.424Z,62.66
2023-02-09T12:58:51.570Z,62.85
2023-02-09T13:01:26.087Z,62.72
2023-02-09T13:04:01.344Z,62.71
2023-02-09T13:06:40.059Z,62.06
2023-02-09T13:09:21.544Z,62.02
2023-02-09T13:11:59.623Z,62.35
2023-02-09T13:14:32.642Z,62.33
2023-02-09T13:17:28.347Z,62.00
2023-02-09T13:20:03.953Z,61.80
2023-02-09T13:22:54.720Z,62.40
2023-02-09T13:25:38.764Z,62.91
2023-02-09T13:28:19.662Z,62.74
2023-02-09T13:30:52.527Z,62.39
2023-02-09T13:33:40.491Z,62.62
2023-02-09T13:36:25.460Z,62.57
2023-02-09T13:38:59.547Z,62.89
2023-02-09T13:41:37.751Z,62.51
2023-02-09T13:44:27.978Z,62.53
2023-02-09T13:47:02.483Z,62.65
2023-02-09T13:49:35.065Z,62.87
2023-02-09T13:52:20.818Z,62.68
2023-02-09T13:54:53.545Z,62.81
2023-02-09T13:57:32.494Z,62.69
2023-02-09T14:00:24.190Z,62.42
2023-02-09T14:03:01.454Z,62.93
2023-02-09T14:05:51.545Z,63.15
2023-02-09T14:08:25.277Z,62.91
2023-02-09T14:11:12.734Z,62.48
2023-02-09T14:13:48.000Z,62.83
2023-02-09T14:16:22.253Z,62.51
2023-02-09T14:18:58.972Z,62.54
2023-02-09T14:21:40.397Z,62.35
2023-02-09T14:24:24.941Z,62.44
2023-02-09T14:27:05.926Z,62.45
2023-02-09T14:29:38.940Z,62.26
2023-02-09T14:32:36.504Z,62.29
2023-02-09T14:35:23.423Z,62.45
2023-02-09T14:37:57.658Z,62.63
2023-02-09T14:40:32.059Z,62.60
2023-02-09T14:43:15.128Z,62.79
2023-02-09T14:45:49.973Z,62.40
2023-02-09T14:48:28.748Z,62.49
2023-02-09T14:51:13.157Z,62.68
2023-02-09T14:53:46.318Z,62.34
2023-02-09T14:56:28.173Z,62.17
2023-02-09T14:59:00.591Z,62.34
2023-02-09T15:01:32.657Z,62.27
2023-02-09T15:04:04.663Z,61.88
2023-02-09T15:06:37.168Z,62.36
2023-02-09T15:09:10.924Z,61.56
2023-02-09T15:12:01.217Z,61.78
2023-02-09T15:14:36.551Z,61.75
2023-02-09T15:17:17.660Z,61.15
2023-02-09T15:19:50.161Z,61.81
2023-02-09T15:22:23.171Z,62.13
2023-02-09T15:24:55.932Z,61.76
2023-02-09T15:27:36.811Z,61.46
2023-02-09T15:30:11.936Z,61.31
2023-02-09T15:32:44.570Z,61.30
2023-02-09T15:35:19.751Z,61.10
2023-02-09T15:37:57.565Z,61.42
2023-02-09T15:40:58.893Z,61.09
2023-02-09T15:43:49.312Z,61.21
2023-02-09T15:46:40.089Z,61.27
2023-02-09T15:49:12.670Z,61.42
2023-02-09T15:51:45.485Z,61.41
2023-02-09T15:54:21.800Z,61.66
2023-02-09T15:56:55.217Z,61.93
2023-02-09T15:59:28.262Z,62.01
2023-02-09T16:02:01.345Z,62.17
2023-02-09T16:04:34.759Z,62.13
2023-02-09T16:07:08.076Z,62.13
2023-02-09T16:09:42.844Z,62.51
2023-02-09T16:12:14.996Z,62.33
2023-02-09T16:14:47.214Z,62.41
2023-02-09T16:17:19.310Z,62.80
2023-02-09T16:19:52.046Z,62.78
2023-02-09T16:22:25.430Z,62.60
2023-02-09T16:24:57.992Z,62.46
2023-02-09T16:27:30.611Z,62.31
2023-02-09T16:30:03.004Z,62.34
2023-02-09T16:32:35.478Z,62.67
2023-02-09T16:35:16.709Z,62.74
2023-02-09T16:37:44.367Z,62.71
2023-02-09T16:40:25.964Z,62.55
2023-02-09T16:43:01.558Z,62.48
2023-02-09T16:45:38.099Z,62.48
2023-02-09T16:48:28.070Z,62.38
2023-02-09T16:51:00.689Z,62.42
2023-02-09T16:53:38.848Z,62.44
2023-02-09T16:56:15.664Z,62.02
2023-02-09T16:58:49.186Z,61.54
2023-02-09T17:01:24.096Z,61.34
2023-02-09T17:03:58.329Z,60.42
2023-02-09T17:06:31.408Z,60.33
2023-02-09T17:09:03.345Z,60.54
2023-02-09T17:11:35.459Z,60.59
2023-02-09T17:14:08.123Z,60.92
2023-02-09T17:16:43.762Z,60.66
2023-02-09T17:19:18.463Z,60.53
2023-02-09T17:21:50.727Z,60.20
2023-02-09T17:24:23.218Z,59.87
2023-02-09T17:26:55.508Z,59.75
2023-02-09T17:29:27.784Z,59.76
2023-02-09T17:32:01.177Z,59.92
2023-02-09T17:34:33.647Z,60.37
2023-02-09T17:37:06.094Z,60.22
2023-02-09T17:39:38.982Z,60.24
2023-02-09T17:42:14.351Z,60.24
2023-02-09T17:44:46.992Z,59.86
2023-02-09T17:47:21.301Z,60.10
2023-02-09T17:49:53.905Z,60.38
2023-02-09T17:52:26.089Z,60.22
2023-02-09T17:54:58.389Z,60.49
2023-02-09T17:57:30.344Z,60.52
2023-02-09T18:00:02.560Z,60.82
2023-02-09T18:02:35.561Z,60.63
2023-02-09T18:05:08.001Z,60.26
2023-02-09T18:07:40.513Z,60.24
2023-02-09T18:10:12.881Z,60.24
2023-02-09T18:12:45.785Z,60.19
2023-02-09T18:15:39.970Z,60.45
2023-02-09T18:18:12.542Z,60.66
2023-02-09T18:20:44.952Z,60.94
2023-02-09T18:23:17.364Z,61.31
2023-02-09T18:25:51.565Z,61.31
2023-02-09T18:28:24.184Z,61.17
2023-02-09T18:30:57.283Z,61.10
2023-02-09T18:33:29.657Z,61.19
2023-02-09T18:36:02.427Z,61.20
2023-02-09T18:38:36.292Z,61.32
2023-02-09T18:41:10.112Z,60.67
2023-02-09T18:43:42.910Z,60.32
2023-02-09T18:46:16.463Z,61.05
2023-02-09T18:48:48.696Z,61.21
2023-02-09T18:51:20.841Z,60.96
2023-02-09T18:53:53.052Z,61.06
2023-02-09T18:56:28.745Z,61.13
2023-02-09T18:59:00.704Z,61.22
2023-02-09T19:01:33.175Z,61.05
2023-02-09T19:04:05.375Z,60.79
2023-02-09T19:06:37.520Z,61.01
2023-02-09T19:09:09.766Z,61.46
2023-02-09T19:11:41.771Z,61.92
2023-02-09T19:14:32.152Z,62.77
2023-02-09T19:17:05.568Z,62.67
2023-02-09T19:19:39.055Z,62.12
2023-02-09T19:22:13.091Z,62.42
2023-02-09T19:24:46.016Z,62.15
2023-02-09T19:27:19.146Z,62.00
2023-02-09T19:29:56.572Z,62.37
2023-02-09T19:32:28.617Z,62.75
2023-02-09T19:35:00.833Z,62.59
2023-02-09T19:37:33.755Z,63.15
2023-02-09T19:40:07.598Z,63.06
2023-02-09T19:42:39.664Z,62.35
2023-02-09T19:45:11.740Z,62.23
2023-02-09T19:47:44.001Z,62.27
2023-02-09T19:50:17.562Z,62.72
2023-02-09T19:52:50.521Z,62.52
2023-02-09T19:55:24.128Z,62.61
2023-02-09T19:57:56.317Z,62.35
2023-02-09T20:00:28.570Z,61.73
2023-02-09T20:03:01.689Z,61.32
2023-02-09T20:05:34.034Z,61.14
2023-02-09T20:08:06.332Z,61.14
2023-02-09T20:10:41.497Z,61.36
2023-02-09T20:13:15.061Z,61.12
2023-02-09T20:15:47.686Z,61.27
2023-02-09T20:18:20.317Z,61.27
2023-02-09T20:20:52.756Z,61.40
2023-02-09T20:23:25.209Z,61.22
2023-02-09T20:25:57.352Z,61.26
2023-02-09T20:28:29.899Z,61.33
2023-02-09T20:31:02.199Z,61.38
2023-02-09T20:33:37.014Z,61.59
2023-02-09T20:36:10.762Z,61.16
2023-02-09T20:38:43.419Z,61.16
2023-02-09T20:41:18.555Z,60.95
2023-02-09T20:44:08.874Z,61.09
2023-02-09T20:46:42.617Z,61.04
2023-02-09T20:49:17.107Z,61.42
2023-02-09T20:51:49.822Z,61.63
2023-02-09T20:54:21.938Z,61.59
2023-02-09T20:56:54.132Z,61.60
2023-02-09T20:59:26.632Z,60.77
2023-02-09T21:01:59.999Z,61.10
2023-02-09T21:04:32.281Z,61.22
2023-02-09T21:07:04.649Z,60.79
2023-02-09T21:09:36.841Z,60.50
2023-02-09T21:12:09.130Z,60.94
2023-02-09T21:14:43.415Z,60.72
2023-02-09T21:17:15.376Z,60.47
2023-02-09T21:19:47.236Z,60.25
2023-02-09T21:22:19.403Z,60.99
2023-02-09T21:24:51.592Z,61.31
2023-02-09T21:27:25.227Z,61.61
2023-02-09T21:29:57.303Z,61.80
2023-02-09T21:32:29.385Z,61.71
2023-02-09T21:35:01.417Z,61.73
2023-02-09T21:37:33.745Z,61.62
2023-02-09T21:40:07.612Z,61.66
2023-02-09T21:42:41.170Z,61.69
2023-02-09T21:45:13.937Z,61.59
2023-02-09T21:47:45.874Z,61.32
2023-02-09T21:50:18.058Z,60.94
2023-02-09T21:52:50.494Z,61.04
2023-02-09T21:55:23.259Z,61.33
2023-02-09T21:57:55.686Z,61.04
2023-02-09T22:00:27.750Z,60.78
2023-02-09T22:02:59.857Z,61.15
2023-02-09T22:05:32.153Z,61.29
2023-02-09T22:08:04.144Z,61.21
2023-02-09T22:10:36.257Z,61.29
2023-02-09T22:13:09.722Z,61.52
2023-02-09T22:15:43.045Z,61.71
2023-02-09T22:18:15.470Z,61.33
2023-02-09T22:20:48.935Z,61.08
2023-02-09T22:23:21.137Z,60.77
2023-02-09T22:25:54.713Z,60.84
2023-02-09T22:28:27.004Z,61.27
2023-02-09T22:31:00.701Z,61.19
2023-02-09T22:33:32.831Z,61.04
2023-02-09T22:36:10.609Z,60.88
2023-02-09T22:38:44.727Z,60.94
2023-02-09T22:41:22.258Z,60.82
2023-02-09T22:44:03.101Z,60.78
2023-02-09T22:46:37.628Z,61.13
2023-02-09T22:49:12.546Z,61.06
2023-02-09T22:51:45.644Z,60.93
2023-02-09T22:54:19.730Z,61.06
2023-02-09T22:56:52.101Z,61.21
2023-02-09T22:59:24.200Z,61.32
2023-02-09T23:01:56.471Z,62.14
2023-02-09T23:04:28.818Z,62.83
2023-02-09T23:07:01.363Z,62.89
2023-02-09T23:09:33.393Z,62.54
2023-02-09T23:12:05.761Z,62.65
2023-02-09T23:14:37.869Z,63.36
2023-02-09T23:17:10.126Z,63.24
2023-02-09T23:19:45.130Z,63.02
2023-02-09T23:22:17.002Z,62.61
2023-02-09T23:24:48.952Z,61.96
2023-02-09T23:27:22.446Z,61.76
2023-02-09T23:29:56.024Z,61.65
2023-02-09T23:32:29.753Z,62.08
2023-02-09T23:35:02.022Z,62.37
2023-02-09T23:37:38.267Z,62.32
2023-02-09T23:40:08.197Z,62.30
2023-02-09T23:42:40.078Z,62.49
2023-02-09T23:45:12.156Z,62.29
2023-02-09T23:47:44.324Z,62.09
2023-02-09T23:50:16.352Z,61.99
2023-02-09T23:52:48.453Z,62.50
2023-02-09T23:55:20.454Z,62.93
2023-02-09T23:57:52.529Z,63.16
